Wetterstation Rossbuehl

Zugriff auf die letzten 10 Werte 30 Werte 100 Werte 400 Werte

Datum_____UhrzeitWind
Mittel
Wind
min
Wind
Boe
Wind
BoeTag
Wind
Richtung
Temp1
Feuchte Station Power
type
BatterieInter
vall
SMS
JJJJ-MM-TT hh:mmkm/hmin SpitzePeak Grad °C % ID Ex.oBat Volt min St.
2019-08-17 22:41 16 15 18 238 17.9 6 2 5.79 1
2019-08-17 22:26 14 11 17 256 17.7 4 2 5.79 1
2019-08-17 22:11 19 9 29 248 16.9 23 2 5.77 1
2019-08-17 21:56 15 9 21 257 17.2 15 2 5.79 1
2019-08-17 21:41 16 13 19 237 16.9 12 2 5.79 1
2019-08-17 21:26 16 15 16 252 16.7 10 2 5.80 1
2019-08-17 21:11 14 9 21 242 16.2 21 2 5.80 1
2019-08-17 20:56 13 10 14 235 15.9 0 2 5.80 1
2019-08-17 20:41 16 16 18 236 15.7 15 2 5.80 1
2019-08-17 20:26 13 10 18 246 15.4 19 2 5.80 1
2019-08-17 20:11 16 12 19 240 15.1 21 2 5.80 1
2019-08-17 19:56 15 14 16 256 14.6 12 2 5.80 1
2019-08-17 19:41 15 13 16 260 13.6 10 2 5.80 1
2019-08-17 19:26 15 13 18 258 13.5 13 2 5.80 1
2019-08-17 19:11 12 11 13 250 13.1 8 2 5.79 1
2019-08-17 18:56 6 2 11 278 12.6 8 2 5.79 1
2019-08-17 18:41 10 9 11 307 12.7 2 2 5.79 1
2019-08-17 18:26 12 9 14 306 13 0 2 5.79 1
2019-08-17 18:11 19 12 26 323 13.7 4 2 5.79 1
2019-08-17 17:56 16 11 20 317 12.9 2 2 5.77 1